createdAt,value
2022-09-27T00:01:25.541Z,11.18
2022-09-27T00:04:13.388Z,12.77
2022-09-27T00:06:47.355Z,12.07
2022-09-27T00:09:35.374Z,11.27
2022-09-27T00:12:10.236Z,10.45
2022-09-27T00:14:58.367Z,11.60
2022-09-27T00:17:32.366Z,12.52
2022-09-27T00:20:21.404Z,14.18
2022-09-27T00:22:55.487Z,12.93
2022-09-27T00:25:43.396Z,12.40
2022-09-27T00:28:17.708Z,11.88
2022-09-27T00:31:05.483Z,12.57
2022-09-27T00:34:00.394Z,12.95
2022-09-27T00:36:47.412Z,12.88
2022-09-27T00:39:21.466Z,12.45
2022-09-27T00:42:08.395Z,11.35
2022-09-27T00:44:42.516Z,12.73
2022-09-27T00:47:43.381Z,12.68
2022-09-27T00:50:31.458Z,10.63
2022-09-27T00:53:25.397Z,10.23
2022-09-27T00:56:08.500Z,10.23
2022-09-27T00:59:03.379Z,10.25
2022-09-27T01:01:37.551Z,11.25
2022-09-27T01:04:29.390Z,11.35
2022-09-27T01:07:03.477Z,10.90
2022-09-27T01:09:51.399Z,11.52
2022-09-27T01:12:30.465Z,11.73
2022-09-27T01:15:19.439Z,12.77
2022-09-27T01:18:03.492Z,12.98
2022-09-27T01:21:00.392Z,12.13
2022-09-27T01:23:49.509Z,12.95
2022-09-27T01:26:48.396Z,11.38
2022-09-27T01:29:31.484Z,11.38
2022-09-27T01:32:33.413Z,12.70
2022-09-27T01:35:07.564Z,13.38
2022-09-27T01:37:54.428Z,12.70
2022-09-27T01:40:35.549Z,11.63
2022-09-27T01:43:25.433Z,12.73
2022-09-27T01:46:10.488Z,12.40
2022-09-27T01:49:05.393Z,12.65
2022-09-27T01:51:55.385Z,13.07
2022-09-27T01:54:33.520Z,13.20
2022-09-27T01:57:30.410Z,14.65
2022-09-27T02:00:09.800Z,13.13
2022-09-27T02:03:06.483Z,13.18
2022-09-27T02:06:01.691Z,13.60
2022-09-27T02:08:49.426Z,14.07
2022-09-27T02:11:23.504Z,15.07
2022-09-27T02:14:14.426Z,16.40
2022-09-27T02:17:04.413Z,15.82
2022-09-27T02:19:55.443Z,15.52
2022-09-27T02:22:51.420Z,15.52
2022-09-27T02:25:27.255Z,14.85
2022-09-27T02:28:23.399Z,15.40
2022-09-27T02:30:57.647Z,14.82
2022-09-27T02:33:48.423Z,13.35
2022-09-27T02:36:22.833Z,14.05
2022-09-27T02:39:10.456Z,13.82
2022-09-27T02:41:44.405Z,13.93
2022-09-27T02:44:33.421Z,14.30
2022-09-27T02:47:31.395Z,14.35
2022-09-27T02:50:26.403Z,13.82
2022-09-27T02:53:38.883Z,13.85
2022-09-27T02:57:01.422Z,12.88
2022-09-27T02:59:35.356Z,13.68
2022-09-27T03:02:26.465Z,14.48
2022-09-27T03:05:02.784Z,13.18
2022-09-27T03:07:50.435Z,14.07
2022-09-27T03:10:28.469Z,15.00
2022-09-27T03:13:16.436Z,15.07
2022-09-27T03:16:10.407Z,15.90
2022-09-27T03:18:57.425Z,14.35
2022-09-27T03:21:31.496Z,13.60
2022-09-27T03:24:19.407Z,14.73
2022-09-27T03:26:53.518Z,13.77
2022-09-27T03:29:40.417Z,15.90
2022-09-27T03:32:21.432Z,14.52
2022-09-27T03:35:15.407Z,14.00
2022-09-27T03:40:36.664Z,13.65
2022-09-27T03:43:17.417Z,14.38
2022-09-27T03:45:57.640Z,15.40
2022-09-27T03:48:38.419Z,15.60
2022-09-27T03:51:19.548Z,15.27
2022-09-27T03:54:00.434Z,13.27
2022-09-27T03:56:41.517Z,15.30
2022-09-27T03:59:22.433Z,15.82
2022-09-27T04:02:02.548Z,16.27
2022-09-27T04:04:43.432Z,16.92
2022-09-27T04:07:23.774Z,19.10
2022-09-27T04:10:04.434Z,18.45
2022-09-27T04:12:47.466Z,20.15
2022-09-27T04:15:28.426Z,19.38
2022-09-27T04:18:23.438Z,21.67
2022-09-27T04:21:11.430Z,23.80
2022-09-27T04:23:46.774Z,19.10
2022-09-27T04:26:34.437Z,18.88
2022-09-27T04:29:09.707Z,16.45
2022-09-27T04:31:56.450Z,18.02
2022-09-27T04:34:55.416Z,17.23
2022-09-27T04:37:43.455Z,14.35
2022-09-27T04:40:17.657Z,15.98
2022-09-27T04:43:05.460Z,15.85
2022-09-27T04:45:46.681Z,16.58
2022-09-27T04:48:27.439Z,16.70
2022-09-27T04:51:09.535Z,17.02
2022-09-27T04:53:50.426Z,15.35
2022-09-27T04:56:31.532Z,14.95
2022-09-27T04:59:12.539Z,20.45
2022-09-27T05:01:53.754Z,18.35
2022-09-27T05:04:34.448Z,18.83
2022-09-27T05:07:15.581Z,17.40
2022-09-27T05:09:55.566Z,17.98
2022-09-27T05:12:36.522Z,18.77
2022-09-27T05:15:17.422Z,16.33
2022-09-27T05:17:58.929Z,17.85
2022-09-27T05:20:38.549Z,19.83
2022-09-27T05:23:20.312Z,16.00
2022-09-27T05:26:03.452Z,20.50
2022-09-27T05:28:53.453Z,16.73
2022-09-27T05:31:34.440Z,16.77
2022-09-27T05:34:15.544Z,18.50
2022-09-27T05:37:02.471Z,17.98
2022-09-27T05:39:49.492Z,16.52
2022-09-27T05:42:24.150Z,17.05
2022-09-27T05:45:11.442Z,19.15
2022-09-27T05:47:45.560Z,19.80
2022-09-27T05:50:33.457Z,21.10
2022-09-27T05:53:07.518Z,18.75
2022-09-27T05:55:55.462Z,20.98
2022-09-27T05:58:29.547Z,24.38
2022-09-27T06:01:17.496Z,24.85
2022-09-27T06:03:52.259Z,27.58
2022-09-27T06:06:42.433Z,30.15
2022-09-27T06:09:20.588Z,32.38
2022-09-27T06:12:08.480Z,31.42
2022-09-27T06:14:42.766Z,32.78
2022-09-27T06:17:29.457Z,33.53
2022-09-27T06:20:03.560Z,32.97
2022-09-27T06:22:52.492Z,31.02
2022-09-27T06:25:26.942Z,31.75
2022-09-27T06:28:14.463Z,31.08
2022-09-27T06:30:56.524Z,33.30
2022-09-27T06:33:37.538Z,32.83
2022-09-27T06:36:25.472Z,34.53
2022-09-27T06:39:01.720Z,35.55
2022-09-27T06:41:49.496Z,34.10
2022-09-27T06:44:24.405Z,35.33
2022-09-27T06:47:12.491Z,34.40
2022-09-27T06:49:46.910Z,32.13
2022-09-27T06:52:34.478Z,36.15
2022-09-27T06:55:08.937Z,33.53
2022-09-27T06:58:14.478Z,34.90
2022-09-27T07:00:54.848Z,34.15
2022-09-27T07:03:51.459Z,33.65
2022-09-27T07:06:45.460Z,37.60
2022-09-27T07:09:33.472Z,36.95
2022-09-27T07:12:07.539Z,36.67
2022-09-27T07:14:56.655Z,32.83
2022-09-27T07:17:30.543Z,33.40
2022-09-27T07:20:18.622Z,30.55
2022-09-27T07:22:52.587Z,30.92
2022-09-27T07:25:40.462Z,28.75
2022-09-27T07:28:19.622Z,31.35
2022-09-27T07:31:09.496Z,29.23
2022-09-27T07:33:43.806Z,30.65
2022-09-27T07:36:31.474Z,29.25
2022-09-27T07:39:08.564Z,30.30
2022-09-27T07:41:55.500Z,29.40
2022-09-27T07:44:36.477Z,30.27
2022-09-27T07:47:32.479Z,28.77
2022-09-27T07:50:26.464Z,27.63
2022-09-27T07:55:48.571Z,29.67
2022-09-27T07:58:29.481Z,29.35
2022-09-27T08:01:09.610Z,29.17
2022-09-27T08:03:51.461Z,27.90
2022-09-27T08:06:31.475Z,25.95
2022-09-27T08:09:05.568Z,25.63
2022-09-27T08:11:53.487Z,25.20
2022-09-27T08:14:27.597Z,26.73
2022-09-27T08:17:17.531Z,26.73
2022-09-27T08:19:51.574Z,25.02
2022-09-27T08:22:39.508Z,23.48
2022-09-27T08:25:14.342Z,23.83
2022-09-27T08:28:03.462Z,24.80
2022-09-27T08:30:38.652Z,23.15
2022-09-27T08:33:31.338Z,23.98
2022-09-27T08:36:06.559Z,26.15
2022-09-27T08:38:57.504Z,21.98
2022-09-27T08:41:33.457Z,23.08
2022-09-27T08:44:30.507Z,23.52
2022-09-27T08:47:25.143Z,20.00
2022-09-27T08:50:17.537Z,20.25
2022-09-27T08:52:54.665Z,20.60
2022-09-27T08:55:47.491Z,21.52
2022-09-27T08:58:32.591Z,19.35
2022-09-27T09:01:27.923Z,19.42
2022-09-27T09:04:04.665Z,17.02
2022-09-27T09:07:10.471Z,16.73
2022-09-27T09:09:59.617Z,14.48
2022-09-27T09:12:55.504Z,15.43
2022-09-27T09:15:54.302Z,13.90
2022-09-27T09:18:34.508Z,14.10
2022-09-27T09:21:15.574Z,13.95
2022-09-27T09:24:17.576Z,12.85
2022-09-27T09:27:01.730Z,13.27
2022-09-27T09:29:57.529Z,13.25
2022-09-27T09:32:44.717Z,13.23
2022-09-27T09:35:41.531Z,11.50
2022-09-27T09:38:28.653Z,11.48
2022-09-27T09:41:20.485Z,13.02
2022-09-27T09:44:10.792Z,11.93
2022-09-27T09:46:55.509Z,12.02
2022-09-27T09:49:57.528Z,12.38
2022-09-27T09:52:48.499Z,12.32
2022-09-27T09:55:36.545Z,11.43
2022-09-27T09:58:36.501Z,11.55
2022-09-27T10:01:36.494Z,12.07
2022-09-27T10:04:18.932Z,11.10
2022-09-27T10:07:06.509Z,12.32
2022-09-27T10:09:40.888Z,11.02
2022-09-27T10:12:28.491Z,10.35
2022-09-27T10:15:03.746Z,12.40
2022-09-27T10:17:57.563Z,10.95
2022-09-27T10:20:34.301Z,12.20
2022-09-27T10:23:27.547Z,11.80
2022-09-27T10:26:04.707Z,12.75
2022-09-27T10:28:55.521Z,12.45
2022-09-27T10:31:43.595Z,12.40
2022-09-27T10:34:30.212Z,10.93
2022-09-27T10:37:19.513Z,11.52
2022-09-27T10:40:00.712Z,11.18
2022-09-27T10:42:42.524Z,12.95
2022-09-27T10:45:40.648Z,11.48
2022-09-27T10:48:26.526Z,12.55
2022-09-27T10:51:11.611Z,9.82
2022-09-27T10:53:54.542Z,8.68
2022-09-27T10:56:40.620Z,8.38
2022-09-27T10:59:25.553Z,8.15
2022-09-27T11:02:06.892Z,8.00
2022-09-27T11:05:19.543Z,8.00
2022-09-27T11:08:04.633Z,8.23
2022-09-27T11:10:46.551Z,8.02
2022-09-27T11:13:39.535Z,7.38
2022-09-27T11:16:38.574Z,7.35
2022-09-27T11:19:37.645Z,8.20
2022-09-27T11:22:36.529Z,8.98
2022-09-27T11:25:50.524Z,9.07
2022-09-27T11:28:24.471Z,9.63
2022-09-27T11:31:19.630Z,9.27
2022-09-27T11:34:00.312Z,10.05
2022-09-27T11:36:55.561Z,10.27
2022-09-27T11:39:57.564Z,10.77
2022-09-27T11:42:45.550Z,11.00
2022-09-27T11:45:41.274Z,10.95
2022-09-27T11:48:29.612Z,10.43
2022-09-27T11:51:10.552Z,10.50
2022-09-27T11:54:01.579Z,11.80
2022-09-27T11:56:56.563Z,12.73
2022-09-27T11:59:44.550Z,11.27
2022-09-27T12:02:37.313Z,11.60
2022-09-27T12:05:42.555Z,11.65
2022-09-27T12:08:22.545Z,11.15
2022-09-27T12:11:17.561Z,11.85
2022-09-27T12:14:26.915Z,13.00
2022-09-27T12:17:08.607Z,12.05
2022-09-27T12:20:07.558Z,12.13
2022-09-27T12:23:04.564Z,13.07
2022-09-27T12:25:48.595Z,13.13
2022-09-27T12:28:47.561Z,13.27
2022-09-27T12:31:39.592Z,12.48
2022-09-27T12:34:29.594Z,12.60
2022-09-27T12:37:06.614Z,12.52
2022-09-27T12:40:25.649Z,13.57
2022-09-27T12:43:18.618Z,11.95
2022-09-27T12:45:58.573Z,13.43
2022-09-27T12:48:47.644Z,11.95
2022-09-27T12:51:29.575Z,12.77
2022-09-27T12:54:20.308Z,12.50
2022-09-27T12:57:18.216Z,11.95
2022-09-27T13:00:06.595Z,12.43
2022-09-27T13:03:16.177Z,12.70
2022-09-27T13:05:57.571Z,12.10
2022-09-27T13:09:05.592Z,12.63
2022-09-27T13:11:54.633Z,12.82
2022-09-27T13:14:46.546Z,12.05
2022-09-27T13:17:46.585Z,12.30
2022-09-27T13:20:44.577Z,11.75
2022-09-27T13:23:35.719Z,12.27
2022-09-27T13:26:37.551Z,12.35
2022-09-27T13:29:31.556Z,12.48
2022-09-27T13:32:12.591Z,12.55
2022-09-27T13:35:03.566Z,13.27
2022-09-27T13:37:40.790Z,12.60
2022-09-27T13:40:34.644Z,12.15
2022-09-27T13:43:26.994Z,11.40
2022-09-27T13:46:22.662Z,10.85
2022-09-27T13:49:02.650Z,12.38
2022-09-27T13:52:01.580Z,12.02
2022-09-27T13:54:42.071Z,12.63
2022-09-27T13:57:47.615Z,12.07
2022-09-27T14:00:38.599Z,12.13
2022-09-27T14:04:02.576Z,12.32
2022-09-27T14:06:52.582Z,12.32
2022-09-27T14:09:41.631Z,13.85
2022-09-27T14:12:34.146Z,13.23
2022-09-27T14:15:30.602Z,13.50
2022-09-27T14:18:04.650Z,14.48
2022-09-27T14:20:57.587Z,12.98
2022-09-27T14:23:38.606Z,12.75
2022-09-27T14:26:36.602Z,12.43
2022-09-27T14:29:21.218Z,14.07
2022-09-27T14:32:18.570Z,13.23
2022-09-27T14:35:38.481Z,13.10
2022-09-27T14:38:38.227Z,14.68
2022-09-27T14:41:19.582Z,14.98
2022-09-27T14:44:00.812Z,13.63
2022-09-27T14:46:40.612Z,13.00
2022-09-27T14:49:38.605Z,13.32
2022-09-27T14:52:18.531Z,14.73
2022-09-27T14:55:09.608Z,13.65
2022-09-27T14:57:54.232Z,14.32
2022-09-27T15:00:43.585Z,15.40
2022-09-27T15:05:52.580Z,15.93
2022-09-27T15:08:35.909Z,16.35
2022-09-27T15:11:24.601Z,16.48
2022-09-27T15:14:01.835Z,15.43
2022-09-27T15:19:25.595Z,15.95
2022-09-27T15:22:06.592Z,16.73
2022-09-27T15:25:00.584Z,14.85
2022-09-27T15:27:47.605Z,13.48
2022-09-27T15:30:27.774Z,12.77
2022-09-27T15:33:31.582Z,15.43
2022-09-27T15:36:10.735Z,14.70
2022-09-27T15:39:13.603Z,15.20
2022-09-27T15:42:06.740Z,17.23
2022-09-27T15:44:55.620Z,17.70
2022-09-27T15:47:39.076Z,15.90
2022-09-27T15:50:31.587Z,14.88
2022-09-27T15:53:06.882Z,15.80
2022-09-27T15:55:54.601Z,16.52
2022-09-27T15:58:28.701Z,15.00
2022-09-27T16:01:31.696Z,15.75
2022-09-27T16:04:25.599Z,17.38
2022-09-27T16:07:15.642Z,17.58
2022-09-27T16:09:51.893Z,17.23
2022-09-27T16:12:39.655Z,16.88
2022-09-27T16:15:20.642Z,16.42
2022-09-27T16:18:14.587Z,16.33
2022-09-27T16:21:01.599Z,15.63
2022-09-27T16:23:42.658Z,15.73
2022-09-27T16:26:29.628Z,16.45
2022-09-27T16:29:03.697Z,14.52
2022-09-27T16:31:51.675Z,13.43
2022-09-27T16:34:25.760Z,13.73
2022-09-27T16:37:13.649Z,14.32
2022-09-27T16:39:54.652Z,14.20
2022-09-27T16:42:50.600Z,14.23
2022-09-27T16:45:39.641Z,13.80
2022-09-27T16:48:13.724Z,15.57
2022-09-27T16:51:21.204Z,14.63
2022-09-27T16:53:55.734Z,14.15
2022-09-27T16:56:43.626Z,14.57
2022-09-27T16:59:17.757Z,15.13
2022-09-27T17:02:05.700Z,14.88
2022-09-27T17:04:39.859Z,16.15
2022-09-27T17:07:27.657Z,15.45
2022-09-27T17:10:01.710Z,15.20
2022-09-27T17:12:48.756Z,16.55
2022-09-27T17:15:23.882Z,17.52
2022-09-27T17:18:10.735Z,17.08
2022-09-27T17:20:44.738Z,16.10
2022-09-27T17:23:31.790Z,15.48
2022-09-27T17:26:14.801Z,16.55
2022-09-27T17:29:03.742Z,15.75
2022-09-27T17:31:46.739Z,18.30
2022-09-27T17:34:40.857Z,16.75
2022-09-27T17:37:34.680Z,17.27
2022-09-27T17:42:57.709Z,16.85
2022-09-27T17:45:31.804Z,18.17
2022-09-27T17:48:37.787Z,18.27
2022-09-27T17:51:11.757Z,16.50
2022-09-27T17:53:59.631Z,17.60
2022-09-27T17:56:33.816Z,16.17
2022-09-27T17:59:22.768Z,15.50
2022-09-27T18:01:57.525Z,14.98
2022-09-27T18:04:45.774Z,15.95
2022-09-27T18:07:20.143Z,15.75
2022-09-27T18:10:07.833Z,17.42
2022-09-27T18:12:43.480Z,17.42
2022-09-27T18:15:31.829Z,17.95
2022-09-27T18:18:05.857Z,16.83
2022-09-27T18:20:52.847Z,17.20
2022-09-27T18:23:26.869Z,17.75
2022-09-27T18:26:17.883Z,17.55
2022-09-27T18:28:54.539Z,17.63
2022-09-27T18:31:47.514Z,19.15
2022-09-27T18:34:30.977Z,18.98
2022-09-27T18:37:18.408Z,18.17
2022-09-27T18:39:58.777Z,17.42
2022-09-27T18:42:38.786Z,18.25
2022-09-27T18:45:19.890Z,17.08
2022-09-27T18:47:59.749Z,17.98
2022-09-27T18:50:45.201Z,19.83
2022-09-27T18:53:25.711Z,19.30
2022-09-27T18:56:08.747Z,19.95
2022-09-27T18:58:49.871Z,19.13
2022-09-27T19:01:33.891Z,19.20
2022-09-27T19:04:17.516Z,18.60
2022-09-27T19:07:00.785Z,19.92
2022-09-27T19:09:40.931Z,21.10
2022-09-27T19:12:21.876Z,18.25
2022-09-27T19:15:01.847Z,19.25
2022-09-27T19:17:49.868Z,21.27
2022-09-27T19:20:29.726Z,20.55
2022-09-27T19:23:10.749Z,19.90
2022-09-27T19:25:50.680Z,19.17
2022-09-27T19:28:38.754Z,20.77
2022-09-27T19:31:20.354Z,19.73
2022-09-27T19:34:07.682Z,19.50
2022-09-27T19:36:41.622Z,18.95
2022-09-27T19:39:29.655Z,18.95
2022-09-27T19:42:03.655Z,18.50
2022-09-27T19:44:51.678Z,20.02
2022-09-27T19:47:25.885Z,20.38
2022-09-27T19:50:13.740Z,20.13
2022-09-27T19:52:47.702Z,22.05
2022-09-27T19:55:35.700Z,20.10
2022-09-27T19:58:09.614Z,20.02
2022-09-27T20:00:57.687Z,19.92
2022-09-27T20:03:31.627Z,20.38
2022-09-27T20:06:21.713Z,22.30
2022-09-27T20:08:58.577Z,19.60
2022-09-27T20:11:46.689Z,18.90
2022-09-27T20:14:26.692Z,19.63
2022-09-27T20:17:08.198Z,18.13
2022-09-27T20:19:48.669Z,17.23
2022-09-27T20:22:36.681Z,18.15
2022-09-27T20:25:10.709Z,18.10
2022-09-27T20:27:58.675Z,16.95
2022-09-27T20:30:32.930Z,17.38
2022-09-27T20:33:38.704Z,18.63
2022-09-27T20:36:20.463Z,16.60
2022-09-27T20:39:15.797Z,16.02
2022-09-27T20:41:57.707Z,16.73
2022-09-27T20:44:45.670Z,17.00
2022-09-27T20:47:26.688Z,17.02
2022-09-27T20:50:14.698Z,16.63
2022-09-27T20:52:48.620Z,16.15
2022-09-27T20:55:36.674Z,16.35
2022-09-27T20:58:30.653Z,17.48
2022-09-27T21:03:52.688Z,15.88
2022-09-27T21:06:33.690Z,17.02
2022-09-27T21:09:25.691Z,16.10
2022-09-27T21:11:59.769Z,17.77
2022-09-27T21:14:46.702Z,16.17
2022-09-27T21:17:20.776Z,9.23
2022-09-27T21:20:08.711Z,10.40
2022-09-27T21:22:49.706Z,6.50
2022-09-27T21:25:43.698Z,3.75
2022-09-27T21:28:30.703Z,3.08
2022-09-27T21:31:04.892Z,3.08
2022-09-27T21:33:55.693Z,2.42
2022-09-27T21:36:37.706Z,2.85
2022-09-27T21:39:18.657Z,2.40
2022-09-27T21:42:06.711Z,2.20
2022-09-27T21:45:00.696Z,2.42
2022-09-27T21:47:47.723Z,2.80
2022-09-27T21:50:21.739Z,2.40
2022-09-27T21:53:08.693Z,1.80
2022-09-27T21:55:43.071Z,2.03
2022-09-27T21:58:30.695Z,2.28
2022-09-27T22:01:11.774Z,2.10
2022-09-27T22:04:06.673Z,1.92
2022-09-27T22:06:54.702Z,2.10
2022-09-27T22:09:35.706Z,2.03
2022-09-27T22:12:22.696Z,2.53
2022-09-27T22:14:56.777Z,2.10
2022-09-27T22:17:43.704Z,2.28
2022-09-27T22:20:24.733Z,1.83
2022-09-27T22:23:18.681Z,1.70
2022-09-27T22:26:06.718Z,1.50
2022-09-27T22:28:47.696Z,1.80
2022-09-27T22:31:35.738Z,1.65
2022-09-27T22:34:16.137Z,1.85
2022-09-27T22:37:04.723Z,2.03
2022-09-27T22:39:38.805Z,1.92
2022-09-27T22:51:19.073Z,2.25
2022-09-27T22:54:29.695Z,2.50
2022-09-27T22:57:03.944Z,2.50
2022-09-27T22:59:51.720Z,2.90
2022-09-27T23:02:25.652Z,2.90
2022-09-27T23:05:13.728Z,2.78
2022-09-27T23:07:48.232Z,2.35
2022-09-27T23:10:35.806Z,2.63
2022-09-27T23:13:16.734Z,2.75
2022-09-27T23:15:57.831Z,2.80
2022-09-27T23:18:38.703Z,3.08
2022-09-27T23:21:22.850Z,2.95
2022-09-27T23:24:05.727Z,4.03
2022-09-27T23:27:13.721Z,3.92
2022-09-27T23:29:47.676Z,3.67
2022-09-27T23:32:35.712Z,3.08
2022-09-27T23:35:09.929Z,3.90
2022-09-27T23:37:57.758Z,4.03
2022-09-27T23:40:37.769Z,4.25
2022-09-27T23:43:18.811Z,4.85
2022-09-27T23:46:01.711Z,4.03
2022-09-27T23:48:42.861Z,3.85
2022-09-27T23:51:24.723Z,4.18
2022-09-27T23:54:05.789Z,3.60
2022-09-27T23:56:45.716Z,3.20
2022-09-27T23:59:27.251Z,3.17
